createdAt,value
2019-01-04T00:02:12.007Z,98288.09
2019-01-04T00:04:37.830Z,98283.50
2019-01-04T00:07:03.663Z,98286.10
2019-01-04T00:09:29.484Z,98290.40
2019-01-04T00:11:55.441Z,98283.49
2019-01-04T00:14:21.453Z,98280.13
2019-01-04T00:16:47.278Z,98285.52
2019-01-04T00:19:13.138Z,98277.11
2019-01-04T00:21:39.085Z,98264.33
2019-01-04T00:24:05.020Z,98276.53
2019-01-04T00:26:30.852Z,98281.73
2019-01-04T00:28:56.671Z,98287.30
2019-01-04T00:31:22.520Z,98285.41
2019-01-04T00:33:48.340Z,98284.30
2019-01-04T00:36:14.211Z,98275.41
2019-01-04T00:38:40.128Z,98276.93
2019-01-04T00:41:05.979Z,98279.63
2019-01-04T00:43:31.776Z,98280.94
2019-01-04T00:45:57.604Z,98283.52
2019-01-04T00:48:23.823Z,98284.83
2019-01-04T00:50:49.675Z,98288.01
2019-01-04T00:53:15.501Z,98293.59
2019-01-04T00:55:51.159Z,98286.60
2019-01-04T00:58:48.342Z,98300.27
2019-01-04T01:01:30.205Z,98287.70
2019-01-04T01:04:09.138Z,98288.90
2019-01-04T01:07:01.952Z,98294.98
2019-01-04T01:09:54.684Z,98287.51
2019-01-04T01:13:02.315Z,98301.27
2019-01-04T01:15:46.454Z,98306.67
2019-01-04T01:18:18.938Z,98303.56
2019-01-04T01:21:09.437Z,98308.17
2019-01-04T01:24:01.980Z,98312.77
2019-01-04T01:26:48.425Z,98308.25
2019-01-04T01:29:41.714Z,98311.14
2019-01-04T01:32:44.990Z,98314.94
2019-01-04T01:35:20.676Z,98318.44
2019-01-04T01:38:13.046Z,98321.72
2019-01-04T01:41:08.565Z,98321.02
2019-01-04T01:44:00.920Z,98320.23
2019-01-04T01:46:39.665Z,98320.13
2019-01-04T01:49:15.049Z,98322.52
2019-01-04T01:51:44.797Z,98318.05
2019-01-04T01:54:10.660Z,98320.23
2019-01-04T01:56:36.509Z,98316.14
2019-01-04T01:59:02.308Z,98326.01
2019-01-04T02:01:28.129Z,98325.63
2019-01-04T02:03:53.955Z,98322.94
2019-01-04T02:06:19.799Z,98326.63
2019-01-04T02:08:45.623Z,98326.63
2019-01-04T02:11:11.472Z,98324.31
2019-01-04T02:13:37.394Z,98327.72
2019-01-04T02:16:03.231Z,98331.39
2019-01-04T02:18:29.037Z,98322.52
2019-01-04T02:20:54.980Z,98321.43
2019-01-04T02:23:20.908Z,98315.64
2019-01-04T02:25:46.758Z,98322.64
2019-01-04T02:28:12.603Z,98315.23
2019-01-04T02:30:38.460Z,98309.34
2019-01-04T02:33:04.312Z,98310.86
2019-01-04T02:35:30.151Z,98310.86
2019-01-04T02:37:55.988Z,98315.34
2019-01-04T02:40:21.890Z,98317.63
2019-01-04T02:42:47.704Z,98309.16
2019-01-04T02:45:13.536Z,98319.53
2019-01-04T02:47:39.374Z,98332.01
2019-01-04T02:50:05.301Z,98326.59
2019-01-04T02:52:31.124Z,98327.70
2019-01-04T02:54:56.945Z,98331.19
2019-01-04T02:57:22.814Z,98337.98
2019-01-04T02:59:48.644Z,98332.90
2019-01-04T03:02:14.470Z,98334.97
2019-01-04T03:04:40.283Z,98337.98
2019-01-04T03:07:06.247Z,98336.09
2019-01-04T03:09:32.089Z,98334.28
2019-01-04T03:11:57.899Z,98337.45
2019-01-04T03:14:23.726Z,98330.08
2019-01-04T03:16:49.636Z,98321.92
2019-01-04T03:19:15.453Z,98318.84
2019-01-04T03:21:41.389Z,98316.32
2019-01-04T03:24:07.198Z,98313.75
2019-01-04T03:26:33.057Z,98311.45
2019-01-04T03:28:58.916Z,98321.12
2019-01-04T03:31:24.828Z,98309.14
2019-01-04T03:33:50.636Z,98309.14
2019-01-04T03:36:16.559Z,98305.84
2019-01-04T03:38:42.521Z,98308.46
2019-01-04T03:41:08.390Z,98303.25
2019-01-04T03:43:34.230Z,98299.86
2019-01-04T03:46:00.133Z,98288.56
2019-01-04T03:48:25.978Z,98294.77
2019-01-04T03:50:51.808Z,98298.67
2019-01-04T03:53:17.633Z,98294.77
2019-01-04T03:55:43.457Z,98298.28
2019-01-04T03:58:09.289Z,98296.28
2019-01-04T04:00:35.091Z,98298.77
2019-01-04T04:03:01.038Z,98302.85
2019-01-04T04:05:26.841Z,98305.55
2019-01-04T04:07:52.650Z,98301.08
2019-01-04T04:10:18.464Z,98316.72
2019-01-04T04:12:44.292Z,98308.42
2019-01-04T04:15:10.199Z,98311.63
2019-01-04T04:17:36.023Z,98306.55
2019-01-04T04:20:03.126Z,98299.94
2019-01-04T04:22:28.961Z,98299.07
2019-01-04T04:24:54.781Z,98296.85
2019-01-04T04:27:20.615Z,98302.26
2019-01-04T04:29:46.422Z,98299.37
2019-01-04T04:32:12.286Z,98300.69
2019-01-04T04:34:38.049Z,98305.26
2019-01-04T04:37:03.888Z,98298.78
2019-01-04T04:39:29.705Z,98293.29
2019-01-04T04:41:55.536Z,98291.70
2019-01-04T04:44:21.345Z,98288.78
2019-01-04T04:46:47.284Z,98288.91
2019-01-04T04:49:13.091Z,98288.70
2019-01-04T04:51:38.903Z,98288.20
2019-01-04T04:54:04.710Z,98285.20
2019-01-04T04:56:30.526Z,98288.91
2019-01-04T04:58:56.443Z,98286.61
2019-01-04T05:01:22.310Z,98283.59
2019-01-04T05:03:48.145Z,98287.69
2019-01-04T05:06:13.962Z,98281.81
2019-01-04T05:08:39.801Z,98293.09
2019-01-04T05:11:05.627Z,98280.60
2019-01-04T05:13:31.453Z,98284.69
2019-01-04T05:15:57.287Z,98284.09
2019-01-04T05:18:23.085Z,98287.69
2019-01-04T05:20:48.958Z,98286.63
2019-01-04T05:23:14.802Z,98283.02
2019-01-04T05:25:40.729Z,98273.45
2019-01-04T05:28:06.603Z,98270.35
2019-01-04T05:30:32.423Z,98281.13
2019-01-04T05:32:58.283Z,98260.38
2019-01-04T05:35:24.072Z,98261.88
2019-01-04T05:37:49.998Z,98262.77
2019-01-04T05:40:15.807Z,98263.86
2019-01-04T05:42:41.621Z,98262.87
2019-01-04T05:45:07.526Z,98273.23
2019-01-04T05:47:33.357Z,98269.27
2019-01-04T05:49:59.285Z,98269.55
2019-01-04T05:52:25.122Z,98269.84
2019-01-04T05:54:50.960Z,98272.84
2019-01-04T05:57:16.788Z,98272.42
2019-01-04T05:59:42.728Z,98177.52
2019-01-04T06:02:08.562Z,98278.55
2019-01-04T06:04:34.390Z,98285.61
2019-01-04T06:07:00.347Z,98284.13
2019-01-04T06:09:26.171Z,98280.52
2019-01-04T06:11:52.025Z,98286.41
2019-01-04T06:14:17.831Z,98278.63
2019-01-04T06:16:43.770Z,98281.44
2019-01-04T06:19:09.581Z,98274.54
2019-01-04T06:21:35.407Z,98268.76
2019-01-04T06:24:01.234Z,98270.27
2019-01-04T06:26:27.058Z,98270.55
2019-01-04T06:28:52.999Z,98280.14
2019-01-04T06:31:18.826Z,98281.32
2019-01-04T06:33:44.668Z,98279.91
2019-01-04T06:36:10.493Z,98286.00
2019-01-04T06:38:36.451Z,98305.45
2019-01-04T06:41:02.349Z,98289.28
2019-01-04T06:43:28.280Z,98292.50
2019-01-04T06:45:54.100Z,98294.96
2019-01-04T06:48:20.124Z,98301.55
2019-01-04T06:50:45.929Z,98297.69
2019-01-04T06:53:11.874Z,98299.56
2019-01-04T06:55:43.572Z,98302.05
2019-01-04T06:58:09.404Z,98306.63
2019-01-04T07:00:35.215Z,98311.63
2019-01-04T07:03:01.086Z,98317.81
2019-01-04T07:05:27.025Z,98317.72
2019-01-04T07:07:52.854Z,98317.52
2019-01-04T07:10:18.695Z,98309.94
2019-01-04T07:12:44.495Z,98314.94
2019-01-04T07:15:10.522Z,98313.55
2019-01-04T07:17:36.331Z,98312.94
2019-01-04T07:20:03.359Z,98313.24
2019-01-04T07:22:29.173Z,98310.14
2019-01-04T07:24:55.032Z,98309.05
2019-01-04T07:27:20.832Z,98299.86
2019-01-04T07:29:46.776Z,98306.73
2019-01-04T07:32:12.603Z,98303.55
2019-01-04T07:34:38.490Z,98309.84
2019-01-04T07:37:04.393Z,98324.22
2019-01-04T07:39:30.243Z,98307.95
2019-01-04T07:41:56.053Z,98316.50
2019-01-04T07:44:21.885Z,98319.31
2019-01-04T07:46:47.721Z,98321.20
2019-01-04T07:49:13.576Z,98321.81
2019-01-04T07:51:39.409Z,98317.31
2019-01-04T07:54:05.250Z,98324.39
2019-01-04T07:56:31.104Z,98322.38
2019-01-04T07:58:56.931Z,98316.90
2019-01-04T08:01:22.788Z,98319.76
2019-01-04T08:03:48.645Z,98333.36
2019-01-04T08:06:14.485Z,98330.77
2019-01-04T08:08:40.416Z,98333.86
2019-01-04T08:11:06.330Z,98337.17
2019-01-04T08:13:32.256Z,98331.33
2019-01-04T08:15:58.165Z,98331.06
2019-01-04T08:18:24.034Z,98333.92
2019-01-04T08:20:49.843Z,98337.07
2019-01-04T08:23:15.667Z,98340.63
2019-01-04T08:25:41.607Z,98334.72
2019-01-04T08:28:07.449Z,98338.11
2019-01-04T08:30:33.355Z,98339.11
2019-01-04T08:32:59.178Z,98338.11
2019-01-04T08:35:25.017Z,98343.52
2019-01-04T08:37:50.823Z,98350.13
2019-01-04T08:40:16.691Z,98341.80
2019-01-04T08:42:42.512Z,98348.55
2019-01-04T08:45:08.447Z,98343.81
2019-01-04T08:47:34.276Z,98341.05
2019-01-04T08:50:00.241Z,98334.91
2019-01-04T08:52:26.165Z,98329.15
2019-01-04T08:54:52.018Z,98327.60
2019-01-04T08:57:17.843Z,98322.20
2019-01-04T08:59:43.669Z,98336.70
2019-01-04T09:02:09.546Z,98330.56
2019-01-04T09:04:36.663Z,98334.11
2019-01-04T09:07:02.591Z,98335.03
2019-01-04T09:09:28.433Z,98341.62
2019-01-04T09:11:54.357Z,98334.41
2019-01-04T09:14:20.180Z,98330.20
2019-01-04T09:16:46.004Z,98320.45
2019-01-04T09:19:11.855Z,98314.45
2019-01-04T09:21:37.890Z,98311.42
2019-01-04T09:24:03.725Z,98310.99
2019-01-04T09:26:29.551Z,98313.82
2019-01-04T09:28:55.536Z,98317.22
2019-01-04T09:31:21.349Z,98314.20
2019-01-04T09:33:47.185Z,98313.53
2019-01-04T09:36:13.002Z,98313.37
2019-01-04T09:38:38.830Z,98316.05
2019-01-04T09:41:32.080Z,98322.25
2019-01-04T09:43:58.011Z,98321.55
2019-01-04T09:46:24.030Z,98320.88
2019-01-04T09:48:50.058Z,98311.95
2019-01-04T09:51:15.889Z,98313.31
2019-01-04T09:53:41.701Z,98305.65
2019-01-04T09:56:07.559Z,98304.94
2019-01-04T09:58:33.378Z,98295.76
2019-01-04T10:00:59.947Z,98286.00
2019-01-04T10:03:25.941Z,98278.86
2019-01-04T10:05:51.922Z,98277.64
2019-01-04T10:08:17.729Z,98283.13
2019-01-04T10:10:43.556Z,98285.73
2019-01-04T10:13:09.396Z,98280.03
2019-01-04T10:15:35.221Z,98271.56
2019-01-04T10:18:01.046Z,98276.56
2019-01-04T10:20:27.001Z,98281.17
2019-01-04T10:22:52.805Z,98273.32
2019-01-04T10:25:18.947Z,98274.17
2019-01-04T10:27:44.761Z,98264.56
2019-01-04T10:30:17.442Z,98263.63
2019-01-04T10:32:43.276Z,98275.12
2019-01-04T10:35:10.568Z,98271.37
2019-01-04T10:37:36.664Z,98267.40
2019-01-04T10:40:03.208Z,98271.34
2019-01-04T10:42:29.142Z,98265.23
2019-01-04T10:44:54.980Z,98258.94
2019-01-04T10:47:20.884Z,98254.73
2019-01-04T10:49:46.719Z,98245.03
2019-01-04T10:52:12.553Z,98241.31
2019-01-04T10:54:38.483Z,98229.66
2019-01-04T10:57:04.330Z,98228.28
2019-01-04T10:59:30.170Z,98223.78
2019-01-04T11:01:55.977Z,98231.39
2019-01-04T11:04:21.805Z,98230.47
2019-01-04T11:06:47.658Z,98220.34
2019-01-04T11:09:13.690Z,98217.67
2019-01-04T11:11:39.531Z,98213.61
2019-01-04T11:14:05.340Z,98215.08
2019-01-04T11:16:31.158Z,98219.77
2019-01-04T11:18:56.988Z,98215.77
2019-01-04T11:21:22.807Z,98212.31
2019-01-04T11:23:58.116Z,98193.95
2019-01-04T11:26:27.775Z,98193.02
2019-01-04T11:29:06.577Z,98188.68
2019-01-04T11:31:51.470Z,98185.76
2019-01-04T11:34:29.763Z,98185.84
2019-01-04T11:37:05.207Z,98167.78
2019-01-04T11:40:08.465Z,98168.30
2019-01-04T11:43:02.800Z,98160.84
2019-01-04T11:45:38.143Z,98149.55
2019-01-04T11:48:13.290Z,98149.91
2019-01-04T11:50:57.740Z,98151.78
2019-01-04T11:53:23.650Z,98142.33
2019-01-04T11:55:49.590Z,98131.19
2019-01-04T11:58:15.417Z,98136.75
2019-01-04T12:00:41.245Z,98142.55
2019-01-04T12:03:07.118Z,98130.55
2019-01-04T12:05:32.937Z,98132.06
2019-01-04T12:07:58.775Z,98129.16
2019-01-04T12:10:24.607Z,98129.60
2019-01-04T12:12:50.443Z,98114.34
2019-01-04T12:15:16.394Z,98118.87
2019-01-04T12:17:42.337Z,98120.41
2019-01-04T12:20:08.152Z,98110.09
2019-01-04T12:22:34.000Z,98099.83
2019-01-04T12:25:00.156Z,98097.42
2019-01-04T12:27:25.957Z,98101.70
2019-01-04T12:29:51.791Z,98103.35
2019-01-04T12:32:17.640Z,98093.32
2019-01-04T12:34:43.573Z,98082.71
2019-01-04T12:37:09.413Z,98074.38
2019-01-04T12:39:35.245Z,98066.56
2019-01-04T12:42:01.186Z,98060.62
2019-01-04T12:44:27.015Z,98046.19
2019-01-04T12:46:52.843Z,98053.05
2019-01-04T12:49:18.793Z,98048.06
2019-01-04T12:51:44.625Z,98043.55
2019-01-04T12:54:10.473Z,98030.54
2019-01-04T12:56:36.309Z,98026.95
2019-01-04T12:59:02.253Z,98027.87
2019-01-04T13:01:28.058Z,98025.33
2019-01-04T13:03:53.877Z,98023.24
2019-01-04T13:06:19.786Z,98018.36
2019-01-04T13:08:45.728Z,98018.80
2019-01-04T13:11:11.665Z,98018.02
2019-01-04T13:13:37.493Z,98009.61
2019-01-04T13:16:03.307Z,98013.45
2019-01-04T13:18:29.130Z,98010.78
2019-01-04T13:20:54.973Z,98015.98
2019-01-04T13:23:20.906Z,98006.13
2019-01-04T13:25:46.741Z,98027.56
2019-01-04T13:28:12.588Z,98022.20
2019-01-04T13:30:38.524Z,98012.47
2019-01-04T13:33:04.342Z,98014.05
2019-01-04T13:35:30.188Z,97999.23
2019-01-04T13:37:56.153Z,98006.47
2019-01-04T13:40:22.072Z,98013.55
2019-01-04T13:42:48.133Z,98007.33
2019-01-04T13:45:13.958Z,98001.77
2019-01-04T13:47:39.794Z,97996.19
2019-01-04T13:50:06.121Z,97995.90
2019-01-04T13:52:32.049Z,97987.23
2019-01-04T13:54:57.861Z,97990.42
2019-01-04T13:57:23.851Z,97990.58
2019-01-04T13:59:49.684Z,97992.23
2019-01-04T14:02:15.512Z,97993.97
2019-01-04T14:04:41.318Z,97988.27
2019-01-04T14:07:07.157Z,97982.27
2019-01-04T14:09:32.981Z,97981.98
2019-01-04T14:11:58.800Z,97981.41
2019-01-04T14:14:24.718Z,97988.48
2019-01-04T14:16:50.551Z,97981.31
2019-01-04T14:19:16.402Z,97970.62
2019-01-04T14:21:42.253Z,97975.54
2019-01-04T14:24:08.107Z,97959.14
2019-01-04T14:26:33.937Z,97955.23
2019-01-04T14:28:59.799Z,97953.37
2019-01-04T14:31:25.725Z,97945.79
2019-01-04T14:33:51.556Z,97936.91
2019-01-04T14:36:17.384Z,97932.62
2019-01-04T14:38:43.243Z,97926.41
2019-01-04T14:41:09.116Z,97926.06
2019-01-04T14:43:34.970Z,97915.72
2019-01-04T14:46:00.927Z,97912.20
2019-01-04T14:48:26.783Z,97901.06
2019-01-04T14:50:52.807Z,97913.91
2019-01-04T14:53:18.745Z,97913.91
2019-01-04T14:55:44.586Z,97918.77
2019-01-04T14:58:10.539Z,97934.88
2019-01-04T15:00:36.362Z,97934.09
2019-01-04T15:03:02.945Z,97927.87
2019-01-04T15:05:28.781Z,97925.06
2019-01-04T15:07:54.664Z,97931.37
2019-01-04T15:10:20.483Z,97944.15
2019-01-04T15:12:46.347Z,97927.75
2019-01-04T15:15:12.175Z,97922.55
2019-01-04T15:17:38.397Z,97921.47
2019-01-04T15:20:06.568Z,97917.77
2019-01-04T15:22:32.835Z,97913.52
2019-01-04T15:24:58.677Z,97920.23
2019-01-04T15:27:24.539Z,97908.88
2019-01-04T15:29:50.390Z,97907.52
2019-01-04T15:32:16.216Z,97908.48
2019-01-04T15:34:42.093Z,97913.73
2019-01-04T15:37:07.936Z,97917.77
2019-01-04T15:39:33.779Z,97927.47
2019-01-04T15:41:59.596Z,97931.94
2019-01-04T15:44:25.458Z,97942.28
2019-01-04T15:46:51.273Z,97929.06
2019-01-04T15:49:17.125Z,97927.65
2019-01-04T15:51:43.060Z,97921.44
2019-01-04T15:54:08.943Z,97913.19
2019-01-04T15:56:34.747Z,97901.42
2019-01-04T15:59:00.585Z,97903.39
2019-01-04T16:01:26.404Z,97892.99
2019-01-04T16:03:52.345Z,97890.90
2019-01-04T16:06:18.150Z,97892.69
2019-01-04T16:08:43.988Z,97894.29
2019-01-04T16:11:09.798Z,97889.66
2019-01-04T16:13:35.665Z,97885.13
2019-01-04T16:16:04.731Z,97893.27
2019-01-04T16:18:30.583Z,97898.19
2019-01-04T16:20:56.406Z,97908.16
2019-01-04T16:23:24.308Z,97901.03
2019-01-04T16:25:50.181Z,97898.27
2019-01-04T16:28:16.010Z,97887.28
2019-01-04T16:30:41.836Z,97885.64
2019-01-04T16:33:07.676Z,97880.49
2019-01-04T16:35:33.498Z,97888.75
2019-01-04T16:37:59.364Z,97873.55
2019-01-04T16:40:25.296Z,97859.69
2019-01-04T16:42:51.126Z,97863.30
2019-01-04T16:45:16.968Z,97871.62
2019-01-04T16:47:42.929Z,97857.67
2019-01-04T16:50:08.859Z,97847.78
2019-01-04T16:52:34.685Z,97842.86
2019-01-04T16:55:00.615Z,97830.03
2019-01-04T16:57:26.430Z,97837.66
2019-01-04T16:59:52.382Z,97839.64
2019-01-04T17:02:18.322Z,97832.41
2019-01-04T17:04:44.161Z,97830.54
2019-01-04T17:07:09.970Z,97809.73
2019-01-04T17:09:35.813Z,97804.03
2019-01-04T17:12:01.719Z,97807.42
2019-01-04T17:14:27.550Z,97805.84
2019-01-04T17:16:53.363Z,97780.34
2019-01-04T17:19:19.213Z,97791.54
2019-01-04T17:21:45.044Z,97480.59
2019-01-04T17:24:10.889Z,97784.53
2019-01-04T17:26:36.825Z,97783.00
2019-01-04T17:29:02.690Z,97780.86
2019-01-04T17:31:28.534Z,97773.16
2019-01-04T17:33:54.402Z,97765.14
2019-01-04T17:36:20.230Z,97764.86
2019-01-04T17:38:46.179Z,97762.34
2019-01-04T17:41:12.017Z,97766.02
2019-01-04T17:43:37.872Z,97757.42
2019-01-04T17:46:03.722Z,97758.16
2019-01-04T17:48:29.572Z,97766.07
2019-01-04T17:50:55.392Z,97777.04
2019-01-04T17:53:21.228Z,97773.14
2019-01-04T17:55:47.188Z,97771.05
2019-01-04T17:58:13.018Z,97763.58
2019-01-04T18:00:38.938Z,97765.50
2019-01-04T18:03:04.780Z,97757.53
2019-01-04T18:05:30.613Z,97751.14
2019-01-04T18:07:56.451Z,97750.86
2019-01-04T18:10:22.282Z,97752.16
2019-01-04T18:12:48.121Z,97745.09
2019-01-04T18:15:14.008Z,97736.45
2019-01-04T18:17:39.832Z,97732.73
2019-01-04T18:20:10.870Z,97744.95
2019-01-04T18:22:35.310Z,97746.08
2019-01-04T18:25:01.283Z,97747.61
2019-01-04T18:27:27.175Z,97747.47
2019-01-04T18:29:53.044Z,97750.83
2019-01-04T18:32:18.839Z,97746.41
2019-01-04T18:34:44.685Z,97720.12
2019-01-04T18:37:10.491Z,97732.38
2019-01-04T18:39:36.324Z,97739.06
2019-01-04T18:42:02.248Z,97740.42
2019-01-04T18:44:28.108Z,97744.14
2019-01-04T18:46:54.043Z,97729.69
2019-01-04T18:49:19.976Z,97723.23
2019-01-04T18:51:45.810Z,97731.55
2019-01-04T18:54:11.791Z,97744.56
2019-01-04T18:56:37.632Z,97745.91
2019-01-04T18:59:03.668Z,97735.45
2019-01-04T19:01:29.546Z,97748.79
2019-01-04T19:03:55.513Z,97755.98
2019-01-04T19:06:21.642Z,97760.27
2019-01-04T19:08:47.470Z,97775.55
2019-01-04T19:11:13.521Z,97773.05
2019-01-04T19:13:39.381Z,97791.38
2019-01-04T19:16:05.243Z,97788.44
2019-01-04T19:18:31.096Z,97793.64
2019-01-04T19:20:56.924Z,97786.42
2019-01-04T19:23:22.753Z,97788.22
2019-01-04T19:25:48.576Z,97800.95
2019-01-04T19:28:14.405Z,97803.11
2019-01-04T19:30:40.347Z,97809.67
2019-01-04T19:33:06.185Z,97791.67
2019-01-04T19:35:32.033Z,97812.05
2019-01-04T19:37:57.878Z,97809.55
2019-01-04T19:40:23.701Z,97803.55
2019-01-04T19:42:49.533Z,97802.76
2019-01-04T19:45:15.397Z,97808.47
2019-01-04T19:47:41.246Z,97798.63
2019-01-04T19:50:16.094Z,97798.91
2019-01-04T19:52:41.922Z,97799.78
2019-01-04T19:55:07.781Z,97793.78
2019-01-04T19:57:33.628Z,97797.50
2019-01-04T19:59:59.563Z,97787.78
2019-01-04T20:02:25.381Z,97784.44
2019-01-04T20:04:51.322Z,97780.26
2019-01-04T20:08:04.430Z,97777.94
2019-01-04T20:10:56.829Z,97767.11
2019-01-04T20:14:00.584Z,97769.56
2019-01-04T20:16:34.840Z,97767.30
2019-01-04T20:19:19.794Z,97768.72
2019-01-04T20:21:50.286Z,97773.39
2019-01-04T20:24:34.667Z,97763.67
2019-01-04T20:27:02.418Z,97762.14
2019-01-04T20:29:41.918Z,97763.11
2019-01-04T20:32:15.488Z,97761.34
2019-01-04T20:34:59.800Z,97760.89
2019-01-04T20:37:27.552Z,97757.73
2019-01-04T20:40:00.886Z,97761.77
2019-01-04T20:42:45.310Z,97749.26
2019-01-04T20:45:22.089Z,97741.96
2019-01-04T20:48:06.447Z,97748.84
2019-01-04T20:50:36.951Z,97746.80
2019-01-04T20:53:10.925Z,97752.37
2019-01-04T20:55:55.446Z,97742.95
2019-01-04T20:58:35.086Z,97748.56
2019-01-04T21:01:02.844Z,97746.02
2019-01-04T21:03:30.592Z,97744.48
2019-01-04T21:06:10.705Z,97739.68
2019-01-04T21:08:41.215Z,97735.77
2019-01-04T21:11:25.519Z,97752.52
2019-01-04T21:14:05.467Z,97754.78
2019-01-04T21:16:42.095Z,97758.45
2019-01-04T21:19:26.855Z,97746.23
2019-01-04T21:22:03.608Z,97755.34
2019-01-04T21:24:31.354Z,97752.00
2019-01-04T21:26:59.073Z,97756.65
2019-01-04T21:29:36.051Z,97759.58
2019-01-04T21:32:16.094Z,97756.70
2019-01-04T21:34:43.841Z,97751.30
2019-01-04T21:37:28.553Z,97751.95
2019-01-04T21:39:59.102Z,97743.49
2019-01-04T21:42:41.864Z,97743.30
2019-01-04T21:45:26.638Z,97740.61
2019-01-04T21:48:00.166Z,97740.73
2019-01-04T21:50:36.966Z,97742.78
2019-01-04T21:53:10.793Z,97743.57
2019-01-04T21:55:41.413Z,97740.33
2019-01-04T21:58:11.664Z,97741.25
2019-01-04T22:00:42.126Z,97737.34
2019-01-04T22:03:12.909Z,97734.45
2019-01-04T22:05:43.411Z,97735.80
2019-01-04T22:08:23.338Z,97730.55
2019-01-04T22:10:54.125Z,97733.95
2019-01-04T22:13:33.726Z,97729.45
2019-01-04T22:16:18.111Z,97732.97
2019-01-04T22:18:54.892Z,97739.08
2019-01-04T22:21:31.771Z,97731.67
2019-01-04T22:24:02.827Z,97728.88
2019-01-04T22:26:45.656Z,97726.78
2019-01-04T22:29:16.048Z,97732.23
2019-01-04T22:31:49.677Z,97724.18
2019-01-04T22:34:23.499Z,97720.59
2019-01-04T22:36:51.270Z,97723.16
2019-01-04T22:39:19.017Z,97718.41
2019-01-04T22:41:58.898Z,97724.92
2019-01-04T22:44:39.025Z,97722.87
2019-01-04T22:47:12.997Z,97724.41
2019-01-04T22:49:57.390Z,97724.37
2019-01-04T22:52:42.148Z,97726.92
2019-01-04T22:55:18.683Z,97728.00
2019-01-04T22:57:46.432Z,97730.31
2019-01-04T23:00:32.813Z,97717.81
2019-01-04T23:03:00.641Z,97716.00
2019-01-04T23:05:28.411Z,97713.55
2019-01-04T23:07:58.969Z,97716.44
2019-01-04T23:10:26.741Z,97712.53
2019-01-04T23:13:11.099Z,97719.04
2019-01-04T23:15:53.914Z,97717.45
2019-01-04T23:18:24.244Z,97716.39
2019-01-04T23:20:55.018Z,97725.78
2019-01-04T23:23:22.864Z,97732.02
2019-01-04T23:25:59.236Z,97728.97
2019-01-04T23:28:29.536Z,97731.50
2019-01-04T23:31:06.425Z,97722.11
2019-01-04T23:33:43.305Z,97718.56
2019-01-04T23:36:27.953Z,97722.67
2019-01-04T23:39:12.276Z,97711.41
2019-01-04T23:41:56.624Z,97722.89
2019-01-04T23:44:42.574Z,97700.17
2019-01-04T23:47:18.984Z,97700.45
2019-01-04T23:50:03.528Z,97695.47
2019-01-04T23:52:37.578Z,97686.83
2019-01-04T23:55:05.413Z,97685.80
2019-01-04T23:57:49.798Z,97684.14
